createdAt,value
2023-11-06T00:00:06.505Z,100.00
2023-11-06T00:02:34.302Z,100.00
2023-11-06T00:05:05.664Z,100.00
2023-11-06T00:07:38.413Z,100.00
2023-11-06T00:10:05.543Z,100.00
2023-11-06T00:12:34.494Z,100.00
2023-11-06T00:15:03.829Z,100.00
2023-11-06T00:17:32.903Z,100.00
2023-11-06T00:19:59.493Z,100.00
2023-11-06T00:22:31.595Z,100.00
2023-11-06T00:24:58.835Z,100.00
2023-11-06T00:27:27.708Z,100.00
2023-11-06T00:29:54.511Z,100.00
2023-11-06T00:32:26.177Z,100.00
2023-11-06T00:34:52.688Z,100.00
2023-11-06T00:37:19.650Z,100.00
2023-11-06T00:39:46.212Z,100.00
2023-11-06T00:42:12.753Z,100.00
2023-11-06T00:44:39.671Z,100.00
2023-11-06T00:47:09.109Z,100.00
2023-11-06T00:49:37.993Z,100.00
2023-11-06T00:52:08.529Z,100.00
2023-11-06T00:54:37.376Z,100.00
2023-11-06T00:57:06.754Z,100.00
2023-11-06T00:59:33.474Z,100.00
2023-11-06T01:02:00.120Z,100.00
2023-11-06T01:04:27.381Z,100.00
2023-11-06T01:06:57.342Z,100.00
2023-11-06T01:09:25.975Z,100.00
2023-11-06T01:11:55.319Z,100.00
2023-11-06T01:14:24.968Z,100.00
2023-11-06T01:16:51.580Z,100.00
2023-11-06T01:19:23.326Z,100.00
2023-11-06T01:21:49.849Z,100.00
2023-11-06T01:24:16.637Z,100.00
2023-11-06T01:26:51.138Z,100.00
2023-11-06T01:29:20.037Z,100.00
2023-11-06T01:31:46.756Z,100.00
2023-11-06T01:34:14.130Z,100.00
2023-11-06T01:36:46.456Z,100.00
2023-11-06T01:39:13.346Z,100.00
2023-11-06T01:41:40.241Z,100.00
2023-11-06T01:44:08.901Z,100.00
2023-11-06T01:46:41.687Z,100.00
2023-11-06T01:49:10.379Z,100.00
2023-11-06T01:51:39.215Z,100.00
2023-11-06T01:54:06.140Z,100.00
2023-11-06T01:56:35.328Z,100.00
2023-11-06T01:59:06.646Z,100.00
2023-11-06T02:01:38.890Z,100.00
2023-11-06T02:04:07.743Z,100.00
2023-11-06T02:06:35.496Z,100.00
2023-11-06T02:09:09.708Z,100.00
2023-11-06T02:11:39.229Z,100.00
2023-11-06T02:14:08.051Z,100.00
2023-11-06T02:16:34.885Z,100.00
2023-11-06T02:19:04.425Z,100.00
2023-11-06T02:21:37.164Z,100.00
2023-11-06T02:24:09.512Z,100.00
2023-11-06T02:26:38.183Z,100.00
2023-11-06T02:29:04.787Z,100.00
2023-11-06T02:31:31.610Z,100.00
2023-11-06T02:33:58.114Z,100.00
2023-11-06T02:36:27.215Z,100.00
2023-11-06T02:38:56.448Z,100.00
2023-11-06T02:41:25.567Z,100.00
2023-11-06T02:43:56.052Z,100.00
2023-11-06T02:46:22.566Z,100.00
2023-11-06T02:48:52.067Z,100.00
2023-11-06T02:51:18.601Z,100.00
2023-11-06T02:53:45.240Z,100.00
2023-11-06T02:56:14.072Z,100.00
2023-11-06T02:58:41.461Z,100.00
2023-11-06T03:01:08.962Z,100.00
2023-11-06T03:03:38.417Z,100.00
2023-11-06T03:06:06.613Z,100.00
2023-11-06T03:08:33.137Z,100.00
2023-11-06T03:10:59.773Z,100.00
2023-11-06T03:13:28.385Z,100.00
2023-11-06T03:15:59.731Z,100.00
2023-11-06T03:18:26.296Z,100.00
2023-11-06T03:20:52.801Z,100.00
2023-11-06T03:23:19.434Z,100.00
2023-11-06T03:25:51.119Z,100.00
2023-11-06T03:28:17.673Z,100.00
2023-11-06T03:30:45.339Z,100.00
2023-11-06T03:33:14.332Z,100.00
2023-11-06T03:35:43.574Z,100.00
2023-11-06T03:38:11.475Z,100.00
2023-11-06T03:40:38.097Z,100.00
2023-11-06T03:43:07.169Z,100.00
2023-11-06T03:45:35.913Z,100.00
2023-11-06T03:48:02.519Z,100.00
2023-11-06T03:50:29.099Z,100.00
2023-11-06T03:52:55.690Z,100.00
2023-11-06T03:55:25.079Z,100.00
2023-11-06T03:57:51.621Z,100.00
2023-11-06T04:00:18.878Z,100.00
2023-11-06T04:02:47.792Z,100.00
2023-11-06T04:05:14.690Z,100.00
2023-11-06T04:07:44.209Z,100.00
2023-11-06T04:10:13.372Z,100.00
2023-11-06T04:12:40.225Z,100.00
2023-11-06T04:15:07.914Z,100.00
2023-11-06T04:17:34.749Z,100.00
2023-11-06T04:20:01.344Z,100.00
2023-11-06T04:22:27.864Z,100.00
2023-11-06T04:24:57.166Z,100.00
2023-11-06T04:27:24.112Z,100.00
2023-11-06T04:29:55.264Z,100.00
2023-11-06T04:32:21.762Z,100.00
2023-11-06T04:34:48.360Z,100.00
2023-11-06T04:37:14.882Z,100.00
2023-11-06T04:39:41.483Z,100.00
2023-11-06T04:42:11.017Z,100.00
2023-11-06T04:44:38.368Z,100.00
2023-11-06T04:47:05.467Z,100.00
2023-11-06T04:49:34.953Z,100.00
2023-11-06T04:52:01.619Z,100.00
2023-11-06T04:54:30.441Z,100.00
2023-11-06T04:56:59.093Z,100.00
2023-11-06T04:59:25.916Z,100.00
2023-11-06T05:01:52.850Z,100.00
2023-11-06T05:04:19.529Z,100.00
2023-11-06T05:06:46.039Z,100.00
2023-11-06T05:09:12.562Z,100.00
2023-11-06T05:11:39.147Z,100.00
2023-11-06T05:14:06.122Z,100.00
2023-11-06T05:16:32.985Z,100.00
2023-11-06T05:19:02.413Z,100.00
2023-11-06T05:21:29.290Z,100.00
2023-11-06T05:23:55.968Z,100.00
2023-11-06T05:26:24.669Z,100.00
2023-11-06T05:28:53.861Z,100.00
2023-11-06T05:31:25.462Z,100.00
2023-11-06T05:33:54.680Z,100.00
2023-11-06T05:36:21.448Z,100.00
2023-11-06T05:38:52.750Z,100.00
2023-11-06T05:41:26.124Z,100.00
2023-11-06T05:43:56.577Z,100.00
2023-11-06T05:46:26.123Z,100.00
2023-11-06T05:48:54.966Z,100.00
2023-11-06T05:51:22.117Z,100.00
2023-11-06T05:53:50.659Z,100.00
2023-11-06T05:56:19.711Z,100.00
2023-11-06T05:58:46.777Z,100.00
2023-11-06T06:01:14.288Z,100.00
2023-11-06T06:03:41.210Z,100.00
2023-11-06T06:06:10.986Z,100.00
2023-11-06T06:08:37.591Z,100.00
2023-11-06T06:11:04.650Z,100.00
2023-11-06T06:13:33.675Z,100.00
2023-11-06T06:16:02.486Z,100.00
2023-11-06T06:18:29.687Z,100.00
2023-11-06T06:21:01.099Z,100.00
2023-11-06T06:23:27.970Z,100.00
2023-11-06T06:25:59.715Z,100.00
2023-11-06T06:28:26.359Z,100.00
2023-11-06T06:30:53.016Z,100.00
2023-11-06T06:33:22.153Z,100.00
2023-11-06T06:35:48.693Z,100.00
2023-11-06T06:38:15.267Z,100.00
2023-11-06T06:40:50.455Z,100.00
2023-11-06T06:43:19.300Z,100.00
2023-11-06T06:45:46.631Z,100.00
2023-11-06T06:48:16.721Z,100.00
2023-11-06T06:50:44.029Z,100.00
2023-11-06T06:53:10.789Z,100.00
2023-11-06T06:55:38.082Z,100.00
2023-11-06T06:58:06.778Z,100.00
2023-11-06T07:00:36.914Z,100.00
2023-11-06T07:03:08.997Z,100.00
2023-11-06T07:05:38.996Z,100.00
2023-11-06T07:08:06.219Z,100.00
2023-11-06T07:10:35.336Z,100.00
2023-11-06T07:13:02.181Z,100.00
2023-11-06T07:15:31.271Z,100.00
2023-11-06T07:18:02.806Z,100.00
2023-11-06T07:20:31.136Z,100.00
2023-11-06T07:22:59.044Z,100.00
2023-11-06T07:25:28.435Z,100.00
2023-11-06T07:27:55.016Z,100.00
2023-11-06T07:30:24.280Z,100.00
2023-11-06T07:32:53.100Z,100.00
2023-11-06T07:35:19.721Z,100.00
2023-11-06T07:37:46.671Z,100.00
2023-11-06T07:40:15.026Z,100.00
2023-11-06T07:42:44.009Z,100.00
2023-11-06T07:45:10.784Z,100.00
2023-11-06T07:47:40.843Z,100.00
2023-11-06T07:50:12.660Z,100.00
2023-11-06T07:52:41.566Z,100.00
2023-11-06T07:55:12.975Z,100.00
2023-11-06T07:57:44.763Z,100.00
2023-11-06T08:00:14.698Z,100.00
2023-11-06T08:02:42.145Z,100.00
2023-11-06T08:05:12.578Z,100.00
2023-11-06T08:07:42.176Z,100.00
2023-11-06T08:10:15.704Z,100.00
2023-11-06T08:12:43.585Z,100.00
2023-11-06T08:15:13.228Z,100.00
2023-11-06T08:17:39.921Z,100.00
2023-11-06T08:20:10.450Z,100.00
2023-11-06T08:22:39.926Z,100.00
2023-11-06T08:25:10.406Z,100.00
2023-11-06T08:27:40.363Z,100.00
2023-11-06T08:30:10.965Z,100.00
2023-11-06T08:32:39.650Z,100.00
2023-11-06T08:35:06.594Z,100.00
2023-11-06T08:37:35.823Z,100.00
2023-11-06T08:40:02.456Z,100.00
2023-11-06T08:42:31.883Z,100.00
2023-11-06T08:45:01.474Z,100.00
2023-11-06T08:47:28.044Z,100.00
2023-11-06T08:49:54.691Z,100.00
2023-11-06T08:52:21.224Z,100.00
2023-11-06T08:54:47.715Z,100.00
2023-11-06T08:57:17.884Z,100.00
2023-11-06T08:59:46.344Z,100.00
2023-11-06T09:02:12.936Z,100.00
2023-11-06T09:04:41.818Z,100.00
2023-11-06T09:07:11.618Z,100.00
2023-11-06T09:09:43.572Z,100.00
2023-11-06T09:12:12.898Z,100.00
2023-11-06T09:14:42.194Z,100.00
2023-11-06T09:17:11.267Z,100.00
2023-11-06T09:19:38.067Z,100.00
2023-11-06T09:22:07.147Z,100.00
2023-11-06T09:24:33.679Z,100.00
2023-11-06T09:27:00.280Z,100.00
2023-11-06T09:29:29.030Z,100.00
2023-11-06T09:31:55.802Z,100.00
2023-11-06T09:34:24.759Z,100.00
2023-11-06T09:36:51.380Z,100.00
2023-11-06T09:39:23.089Z,100.00
2023-11-06T09:41:50.184Z,100.00
2023-11-06T09:44:20.074Z,100.00
2023-11-06T09:46:47.110Z,100.00
2023-11-06T09:49:23.513Z,100.00
2023-11-06T09:51:56.421Z,100.00
2023-11-06T09:54:25.706Z,100.00
2023-11-06T09:56:54.597Z,100.00
2023-11-06T09:59:23.034Z,100.00
2023-11-06T10:01:57.457Z,100.00
2023-11-06T10:04:24.188Z,100.00
2023-11-06T10:06:51.850Z,100.00
2023-11-06T10:09:26.133Z,100.00
2023-11-06T10:11:53.184Z,100.00
2023-11-06T10:14:22.251Z,100.00
2023-11-06T10:17:05.857Z,100.00
2023-11-06T10:19:32.529Z,100.00
2023-11-06T10:22:14.740Z,100.00
2023-11-06T10:24:54.722Z,100.00
2023-11-06T10:27:30.832Z,100.00
2023-11-06T10:30:11.064Z,100.00
2023-11-06T10:32:40.006Z,100.00
2023-11-06T10:35:14.892Z,100.00
2023-11-06T10:37:44.194Z,100.00
2023-11-06T10:40:15.189Z,100.00
2023-11-06T10:42:45.317Z,100.00
2023-11-06T10:45:16.615Z,100.00
2023-11-06T10:47:44.616Z,100.00
2023-11-06T10:50:19.482Z,100.00
2023-11-06T10:52:54.961Z,100.00
2023-11-06T10:55:31.746Z,100.00
2023-11-06T10:57:59.793Z,100.00
2023-11-06T11:00:26.650Z,100.00
2023-11-06T11:02:57.291Z,100.00
2023-11-06T11:05:26.151Z,100.00
2023-11-06T11:07:55.096Z,100.00
2023-11-06T11:10:27.902Z,99.98
2023-11-06T11:13:01.204Z,100.00
2023-11-06T11:15:32.881Z,100.00
2023-11-06T11:18:02.037Z,100.00
2023-11-06T11:20:54.834Z,100.00
2023-11-06T11:23:47.443Z,100.00
2023-11-06T11:26:14.973Z,100.00
2023-11-06T11:28:59.403Z,100.00
2023-11-06T11:31:34.165Z,98.26
2023-11-06T11:34:01.065Z,97.61
2023-11-06T11:36:38.038Z,97.45
2023-11-06T11:39:07.846Z,99.21
2023-11-06T11:41:34.777Z,98.41
2023-11-06T11:44:09.907Z,98.42
2023-11-06T11:46:42.347Z,97.59
2023-11-06T11:49:10.073Z,97.81
2023-11-06T11:51:51.573Z,97.56
2023-11-06T11:54:38.334Z,97.78
2023-11-06T11:57:12.287Z,97.02
2023-11-06T11:59:39.889Z,97.11
2023-11-06T12:02:09.445Z,97.81
2023-11-06T12:04:38.571Z,98.08
2023-11-06T12:07:06.556Z,97.22
2023-11-06T12:09:51.842Z,97.84
2023-11-06T12:12:24.764Z,96.92
2023-11-06T12:14:53.075Z,98.28
2023-11-06T12:17:35.708Z,98.12
2023-11-06T12:20:15.188Z,97.85
2023-11-06T12:22:49.399Z,97.73
2023-11-06T12:25:27.990Z,97.74
2023-11-06T12:27:55.049Z,96.60
2023-11-06T12:30:21.846Z,97.41
2023-11-06T12:32:53.495Z,97.63
2023-11-06T12:35:22.628Z,96.97
2023-11-06T12:37:59.768Z,97.94
2023-11-06T12:40:28.933Z,97.21
2023-11-06T12:43:04.601Z,97.50
2023-11-06T12:45:37.286Z,98.24
2023-11-06T12:48:29.563Z,98.23
2023-11-06T12:51:11.579Z,97.98
2023-11-06T12:53:40.719Z,98.12
2023-11-06T12:56:08.824Z,99.04
2023-11-06T12:58:40.487Z,98.71
2023-11-06T13:01:23.319Z,98.78
2023-11-06T13:03:55.003Z,98.56
2023-11-06T13:06:24.035Z,98.08
2023-11-06T13:08:51.001Z,97.56
2023-11-06T13:11:29.165Z,97.63
2023-11-06T13:14:00.387Z,97.91
2023-11-06T13:16:29.560Z,98.20
2023-11-06T13:18:59.136Z,98.53
2023-11-06T13:21:32.112Z,98.51
2023-11-06T13:23:59.493Z,98.52
2023-11-06T13:26:26.546Z,99.33
2023-11-06T13:28:56.133Z,98.20
2023-11-06T13:31:28.772Z,97.83
2023-11-06T13:34:00.198Z,97.87
2023-11-06T13:36:29.686Z,98.09
2023-11-06T13:38:56.223Z,98.64
2023-11-06T13:41:23.770Z,98.14
2023-11-06T13:43:51.630Z,98.67
2023-11-06T13:46:18.693Z,98.74
2023-11-06T13:48:49.470Z,98.97
2023-11-06T13:51:20.925Z,98.94
2023-11-06T13:53:49.805Z,98.54
2023-11-06T13:56:29.817Z,99.05
2023-11-06T13:58:59.253Z,99.39
2023-11-06T14:01:44.252Z,98.54
2023-11-06T14:04:12.113Z,98.81
2023-11-06T14:06:42.296Z,99.57
2023-11-06T14:09:47.360Z,100.00
2023-11-06T14:12:16.704Z,99.89
2023-11-06T14:14:43.679Z,100.00
2023-11-06T14:17:12.859Z,100.00
2023-11-06T14:19:42.464Z,100.00
2023-11-06T14:22:10.469Z,100.00
2023-11-06T14:24:38.126Z,100.00
2023-11-06T14:27:06.494Z,100.00
2023-11-06T14:29:33.620Z,100.00
2023-11-06T14:32:05.732Z,100.00
2023-11-06T14:34:32.527Z,100.00
2023-11-06T14:37:00.057Z,100.00
2023-11-06T14:39:30.634Z,100.00
2023-11-06T14:41:57.152Z,100.00
2023-11-06T14:44:25.465Z,100.00
2023-11-06T14:46:53.241Z,100.00
2023-11-06T14:49:22.079Z,100.00
2023-11-06T14:51:50.909Z,100.00
2023-11-06T14:54:21.181Z,100.00
2023-11-06T14:56:47.800Z,100.00
2023-11-06T14:59:18.838Z,100.00
2023-11-06T15:01:50.552Z,100.00
2023-11-06T15:04:21.125Z,100.00
2023-11-06T15:06:50.681Z,100.00
2023-11-06T15:09:17.507Z,100.00
2023-11-06T15:11:46.574Z,100.00
2023-11-06T15:14:13.825Z,100.00
2023-11-06T15:16:42.708Z,100.00
2023-11-06T15:19:11.180Z,100.00
2023-11-06T15:21:38.263Z,100.00
2023-11-06T15:24:05.276Z,100.00
2023-11-06T15:26:32.960Z,100.00
2023-11-06T15:28:59.538Z,100.00
2023-11-06T15:31:29.656Z,100.00
2023-11-06T15:33:58.022Z,100.00
2023-11-06T15:36:25.104Z,100.00
2023-11-06T15:38:51.777Z,100.00
2023-11-06T15:41:22.305Z,100.00
2023-11-06T15:43:51.805Z,100.00
2023-11-06T15:46:27.830Z,100.00
2023-11-06T15:48:59.701Z,100.00
2023-11-06T15:51:30.938Z,100.00
2023-11-06T15:53:57.692Z,100.00
2023-11-06T15:56:24.356Z,100.00
2023-11-06T15:58:53.476Z,100.00
2023-11-06T16:01:20.136Z,100.00
2023-11-06T16:03:49.225Z,100.00
2023-11-06T16:06:20.831Z,100.00
2023-11-06T16:08:47.492Z,100.00
2023-11-06T16:11:15.698Z,100.00
2023-11-06T16:13:44.928Z,100.00
2023-11-06T16:16:16.017Z,100.00
2023-11-06T16:18:42.604Z,100.00
2023-11-06T16:21:14.529Z,100.00
2023-11-06T16:23:42.222Z,100.00
2023-11-06T16:26:11.418Z,100.00
2023-11-06T16:28:39.716Z,100.00
2023-11-06T16:31:14.257Z,100.00
2023-11-06T16:33:43.137Z,100.00
2023-11-06T16:36:12.534Z,100.00
2023-11-06T16:38:40.372Z,100.00
2023-11-06T16:41:10.963Z,100.00
2023-11-06T16:43:37.818Z,100.00
2023-11-06T16:46:05.921Z,100.00
2023-11-06T16:48:32.444Z,100.00
2023-11-06T16:51:02.049Z,100.00
2023-11-06T16:53:28.624Z,100.00
2023-11-06T16:55:57.317Z,100.00
2023-11-06T16:58:26.141Z,100.00
2023-11-06T17:00:55.392Z,100.00
2023-11-06T17:03:23.352Z,100.00
2023-11-06T17:05:54.661Z,100.00
2023-11-06T17:08:21.466Z,100.00
2023-11-06T17:10:50.232Z,100.00
2023-11-06T17:13:18.329Z,100.00
2023-11-06T17:15:45.172Z,100.00
2023-11-06T17:18:11.961Z,100.00
2023-11-06T17:20:42.996Z,100.00
2023-11-06T17:23:12.335Z,100.00
2023-11-06T17:25:39.511Z,100.00
2023-11-06T17:28:06.137Z,100.00
2023-11-06T17:30:36.242Z,100.00
2023-11-06T17:33:03.624Z,100.00
2023-11-06T17:35:35.313Z,100.00
2023-11-06T17:38:01.878Z,100.00
2023-11-06T17:40:28.442Z,100.00
2023-11-06T17:42:54.973Z,100.00
2023-11-06T17:45:21.472Z,100.00
2023-11-06T17:47:48.187Z,100.00
2023-11-06T17:50:20.100Z,100.00
2023-11-06T17:52:46.617Z,100.00
2023-11-06T17:55:13.170Z,100.00
2023-11-06T17:57:39.821Z,100.00
2023-11-06T18:00:07.044Z,100.00
2023-11-06T18:02:38.568Z,100.00
2023-11-06T18:05:06.146Z,100.00
2023-11-06T18:07:35.408Z,100.00
2023-11-06T18:10:11.443Z,100.00
2023-11-06T18:12:40.667Z,100.00
2023-11-06T18:15:08.285Z,100.00
2023-11-06T18:17:37.707Z,100.00
2023-11-06T18:20:07.290Z,100.00
2023-11-06T18:22:38.988Z,100.00
2023-11-06T18:25:07.230Z,100.00
2023-11-06T18:27:36.541Z,100.00
2023-11-06T18:30:07.198Z,100.00
2023-11-06T18:32:34.923Z,100.00
2023-11-06T18:35:04.754Z,100.00
2023-11-06T18:37:31.874Z,100.00
2023-11-06T18:40:00.556Z,100.00
2023-11-06T18:42:28.072Z,100.00
2023-11-06T18:44:55.493Z,100.00
2023-11-06T18:47:25.540Z,100.00
2023-11-06T18:49:53.186Z,100.00
2023-11-06T18:52:20.823Z,100.00
2023-11-06T18:54:47.816Z,100.00
2023-11-06T18:57:17.194Z,100.00
2023-11-06T18:59:50.958Z,100.00
2023-11-06T19:02:19.040Z,100.00
2023-11-06T19:04:48.028Z,100.00
2023-11-06T19:07:17.226Z,100.00
2023-11-06T19:09:47.034Z,100.00
2023-11-06T19:12:13.946Z,100.00
2023-11-06T19:14:42.745Z,100.00
2023-11-06T19:17:11.852Z,100.00
2023-11-06T19:19:42.039Z,100.00
2023-11-06T19:22:10.835Z,100.00
2023-11-06T19:24:39.480Z,100.00
2023-11-06T19:27:08.508Z,100.00
2023-11-06T19:29:37.866Z,100.00
2023-11-06T19:32:06.437Z,100.00
2023-11-06T19:34:33.015Z,100.00
2023-11-06T19:37:04.970Z,100.00
2023-11-06T19:39:32.016Z,100.00
2023-11-06T19:42:00.323Z,100.00
2023-11-06T19:44:29.532Z,100.00
2023-11-06T19:46:56.477Z,100.00
2023-11-06T19:49:23.361Z,100.00
2023-11-06T19:51:50.401Z,100.00
2023-11-06T19:54:21.867Z,100.00
2023-11-06T19:56:48.960Z,100.00
2023-11-06T19:59:35.809Z,100.00
2023-11-06T20:02:11.777Z,100.00
2023-11-06T20:04:43.431Z,100.00
2023-11-06T20:07:11.003Z,100.00
2023-11-06T20:09:38.158Z,100.00
2023-11-06T20:12:09.356Z,100.00
2023-11-06T20:14:36.094Z,100.00
2023-11-06T20:17:04.402Z,100.00
2023-11-06T20:19:30.884Z,100.00
2023-11-06T20:22:00.056Z,100.00
2023-11-06T20:24:26.566Z,100.00
2023-11-06T20:26:55.500Z,100.00
2023-11-06T20:29:24.166Z,100.00
2023-11-06T20:31:51.508Z,100.00
2023-11-06T20:34:18.280Z,100.00
2023-11-06T20:36:46.881Z,100.00
2023-11-06T20:39:17.250Z,100.00
2023-11-06T20:41:45.462Z,100.00
2023-11-06T20:44:12.362Z,100.00
2023-11-06T20:46:45.133Z,100.00
2023-11-06T20:49:12.265Z,100.00
2023-11-06T20:51:39.591Z,100.00
2023-11-06T20:54:07.449Z,100.00
2023-11-06T20:56:39.255Z,100.00
2023-11-06T20:59:09.075Z,100.00
2023-11-06T21:01:40.516Z,100.00
2023-11-06T21:04:07.301Z,100.00
2023-11-06T21:06:35.792Z,100.00
2023-11-06T21:09:02.423Z,100.00
2023-11-06T21:11:31.212Z,100.00
2023-11-06T21:13:59.966Z,100.00
2023-11-06T21:16:26.904Z,100.00
2023-11-06T21:19:00.323Z,100.00
2023-11-06T21:21:29.499Z,100.00
2023-11-06T21:23:57.054Z,100.00
2023-11-06T21:26:25.997Z,100.00
2023-11-06T21:28:55.260Z,100.00
2023-11-06T21:31:24.530Z,100.00
2023-11-06T21:33:52.113Z,100.00
2023-11-06T21:36:20.948Z,100.00
2023-11-06T21:38:47.501Z,100.00
2023-11-06T21:41:14.557Z,100.00
2023-11-06T21:43:43.777Z,100.00
2023-11-06T21:46:14.499Z,100.00
2023-11-06T21:48:43.708Z,100.00
2023-11-06T21:51:11.179Z,100.00
2023-11-06T21:53:38.415Z,100.00
2023-11-06T21:56:13.246Z,100.00
2023-11-06T21:58:40.156Z,100.00
2023-11-06T22:01:07.069Z,100.00
2023-11-06T22:03:33.774Z,100.00
2023-11-06T22:06:02.902Z,100.00
2023-11-06T22:08:29.606Z,100.00
2023-11-06T22:10:58.949Z,100.00
2023-11-06T22:13:26.766Z,100.00
2023-11-06T22:15:54.066Z,100.00
2023-11-06T22:18:23.289Z,100.00
2023-11-06T22:20:52.178Z,100.00
2023-11-06T22:23:19.444Z,100.00
2023-11-06T22:25:46.102Z,100.00
2023-11-06T22:28:13.819Z,100.00
2023-11-06T22:30:40.331Z,100.00
2023-11-06T22:33:09.691Z,100.00
2023-11-06T22:35:36.529Z,100.00
2023-11-06T22:38:03.445Z,100.00
2023-11-06T22:40:30.062Z,100.00
2023-11-06T22:42:56.939Z,100.00
2023-11-06T22:45:26.390Z,100.00
2023-11-06T22:47:55.740Z,100.00
2023-11-06T22:50:25.082Z,100.00
2023-11-06T22:52:54.024Z,100.00
2023-11-06T22:55:20.640Z,100.00
2023-11-06T22:57:47.144Z,100.00
2023-11-06T23:00:28.416Z,100.00
2023-11-06T23:02:59.556Z,100.00
2023-11-06T23:05:31.703Z,100.00
2023-11-06T23:08:00.823Z,100.00
2023-11-06T23:10:29.825Z,100.00
2023-11-06T23:12:56.688Z,100.00
2023-11-06T23:15:23.436Z,100.00
2023-11-06T23:17:50.348Z,100.00
2023-11-06T23:20:21.129Z,100.00
2023-11-06T23:22:50.447Z,100.00
2023-11-06T23:25:22.897Z,100.00
2023-11-06T23:27:53.695Z,100.00
2023-11-06T23:30:26.881Z,100.00
2023-11-06T23:32:55.709Z,100.00
2023-11-06T23:35:22.216Z,100.00
2023-11-06T23:37:48.714Z,100.00
2023-11-06T23:40:15.266Z,100.00
2023-11-06T23:42:41.942Z,100.00
2023-11-06T23:45:08.870Z,100.00
2023-11-06T23:47:38.799Z,100.00
2023-11-06T23:50:07.076Z,100.00
2023-11-06T23:52:34.862Z,100.00
2023-11-06T23:55:04.164Z,100.00
2023-11-06T23:57:33.178Z,100.00
